createdAt,value
2017-06-18T00:01:05.576Z,71.00
2017-06-18T00:03:33.815Z,71.40
2017-06-18T00:06:01.268Z,71.50
2017-06-18T00:08:28.718Z,72.50
2017-06-18T00:10:56.176Z,73.50
2017-06-18T00:13:23.630Z,73.20
2017-06-18T00:15:51.088Z,73.70
2017-06-18T00:18:18.550Z,71.80
2017-06-18T00:20:46.003Z,72.40
2017-06-18T00:23:13.450Z,73.30
2017-06-18T00:25:40.902Z,73.00
2017-06-18T00:28:08.343Z,72.80
2017-06-18T00:30:35.804Z,73.10
2017-06-18T00:33:03.255Z,73.90
2017-06-18T00:35:30.723Z,73.60
2017-06-18T00:37:58.142Z,73.30
2017-06-18T00:40:25.583Z,73.00
2017-06-18T00:42:53.799Z,72.60
2017-06-18T00:45:21.230Z,72.60
2017-06-18T00:47:48.679Z,72.30
2017-06-18T00:50:16.883Z,70.90
2017-06-18T00:52:44.338Z,70.90
2017-06-18T00:55:11.782Z,73.80
2017-06-18T00:57:39.231Z,75.40
2017-06-18T01:00:06.663Z,77.00
2017-06-18T01:02:34.897Z,77.40
2017-06-18T01:05:02.339Z,76.70
2017-06-18T01:07:29.775Z,78.00
2017-06-18T01:09:57.238Z,78.70
2017-06-18T01:12:24.675Z,79.20
2017-06-18T01:14:52.122Z,79.00
2017-06-18T01:17:20.322Z,79.50
2017-06-18T01:19:47.770Z,79.40
2017-06-18T01:22:15.207Z,79.20
2017-06-18T01:24:43.428Z,78.20
2017-06-18T01:27:10.858Z,78.90
2017-06-18T01:29:38.303Z,77.50
2017-06-18T01:32:05.738Z,76.80
2017-06-18T01:34:33.950Z,77.80
2017-06-18T01:37:01.386Z,78.10
2017-06-18T01:39:29.602Z,77.60
2017-06-18T01:41:57.050Z,77.60
2017-06-18T01:44:24.507Z,77.80
2017-06-18T01:46:51.947Z,77.90
2017-06-18T01:49:19.387Z,77.40
2017-06-18T01:51:46.839Z,78.30
2017-06-18T01:54:15.046Z,81.30
2017-06-18T01:56:42.503Z,81.30
2017-06-18T01:59:09.946Z,81.20
2017-06-18T02:01:37.391Z,81.60
2017-06-18T02:04:04.827Z,81.50
2017-06-18T02:06:33.047Z,81.20
2017-06-18T02:09:00.483Z,81.10
2017-06-18T02:11:27.931Z,80.60
2017-06-18T02:13:55.371Z,80.20
2017-06-18T02:16:22.819Z,79.70
2017-06-18T02:18:50.260Z,78.90
2017-06-18T02:21:17.702Z,79.60
2017-06-18T02:23:45.150Z,79.50
2017-06-18T02:26:12.591Z,80.00
2017-06-18T02:28:40.051Z,79.80
2017-06-18T02:31:07.490Z,79.90
2017-06-18T02:33:34.935Z,79.20
2017-06-18T02:36:02.375Z,78.30
2017-06-18T02:38:30.591Z,76.50
2017-06-18T02:40:58.028Z,76.50
2017-06-18T02:43:25.475Z,76.20
2017-06-18T02:45:52.915Z,76.40
2017-06-18T02:48:21.134Z,77.90
2017-06-18T02:50:48.575Z,77.90
2017-06-18T02:53:16.019Z,78.20
2017-06-18T02:55:43.458Z,79.90
2017-06-18T02:58:11.675Z,78.30
2017-06-18T03:00:39.118Z,78.30
2017-06-18T03:03:06.567Z,78.90
2017-06-18T03:05:34.010Z,80.10
2017-06-18T03:08:01.451Z,80.90
2017-06-18T03:10:29.671Z,81.70
2017-06-18T03:12:57.115Z,81.60
2017-06-18T03:15:24.563Z,81.40
2017-06-18T03:17:52.003Z,80.00
2017-06-18T03:20:20.214Z,80.20
2017-06-18T03:22:53.387Z,80.20
2017-06-18T03:25:20.831Z,81.70
2017-06-18T03:27:48.274Z,83.40
2017-06-18T03:30:16.490Z,84.40
2017-06-18T03:32:43.930Z,84.30
2017-06-18T03:35:11.376Z,84.50
2017-06-18T03:37:38.818Z,84.20
2017-06-18T03:40:07.059Z,85.20
2017-06-18T03:42:34.499Z,84.60
2017-06-18T03:45:01.946Z,84.60
2017-06-18T03:47:29.402Z,84.70
2017-06-18T03:49:56.851Z,84.70
2017-06-18T03:52:24.290Z,84.40
2017-06-18T03:54:51.734Z,84.60
2017-06-18T03:57:19.947Z,85.00
2017-06-18T03:59:47.386Z,85.60
2017-06-18T04:02:14.834Z,84.50
2017-06-18T04:04:42.279Z,84.20
2017-06-18T04:07:10.495Z,82.80
2017-06-18T04:09:37.939Z,82.80
2017-06-18T04:12:05.400Z,82.00
2017-06-18T04:14:32.838Z,81.20
2017-06-18T04:17:00.289Z,80.20
2017-06-18T04:19:27.723Z,81.00
2017-06-18T04:21:55.939Z,82.30
2017-06-18T04:24:23.396Z,82.20
2017-06-18T04:26:50.834Z,82.20
2017-06-18T04:29:18.282Z,80.30
2017-06-18T04:31:45.724Z,79.40
2017-06-18T04:34:13.936Z,78.80
2017-06-18T04:36:41.379Z,78.70
2017-06-18T04:39:08.822Z,78.70
2017-06-18T04:41:36.268Z,77.60
2017-06-18T04:44:04.478Z,76.20
2017-06-18T04:46:31.923Z,76.20
2017-06-18T04:48:59.371Z,76.70
2017-06-18T04:51:26.811Z,76.00
2017-06-18T04:53:55.019Z,73.90
2017-06-18T04:56:22.465Z,73.70
2017-06-18T04:58:49.918Z,72.40
2017-06-18T05:01:17.374Z,72.30
2017-06-18T05:03:44.814Z,70.40
2017-06-18T05:06:12.274Z,69.90
2017-06-18T05:08:39.725Z,70.10
2017-06-18T05:11:07.955Z,70.40
2017-06-18T05:13:35.406Z,70.30
2017-06-18T05:16:02.862Z,71.00
2017-06-18T05:18:30.311Z,70.30
2017-06-18T05:20:57.759Z,71.80
2017-06-18T05:23:25.214Z,73.00
2017-06-18T05:25:52.671Z,72.10
2017-06-18T05:28:20.127Z,71.20
2017-06-18T05:30:47.582Z,69.80
2017-06-18T05:33:15.030Z,71.80
2017-06-18T05:35:42.495Z,69.30
2017-06-18T05:38:09.951Z,67.50
2017-06-18T05:40:37.395Z,63.00
2017-06-18T05:43:04.846Z,62.60
2017-06-18T05:45:33.059Z,56.00
2017-06-18T05:48:00.511Z,55.90
2017-06-18T05:50:27.950Z,54.30
2017-06-18T05:52:55.396Z,56.00
2017-06-18T05:55:22.839Z,52.40
2017-06-18T05:57:51.051Z,58.00
2017-06-18T06:00:18.500Z,57.90
2017-06-18T06:02:45.947Z,52.30
2017-06-18T06:05:13.396Z,58.00
2017-06-18T06:07:40.931Z,62.20
2017-06-18T06:10:09.138Z,64.00
2017-06-18T06:12:36.574Z,64.30
2017-06-18T06:15:04.795Z,53.60
2017-06-18T06:17:32.234Z,53.50
2017-06-18T06:19:59.691Z,55.60
2017-06-18T06:22:27.135Z,49.90
2017-06-18T06:24:54.582Z,47.70
2017-06-18T06:27:22.021Z,46.10
2017-06-18T06:29:50.240Z,41.00
2017-06-18T06:32:17.679Z,40.90
2017-06-18T06:34:45.135Z,39.60
2017-06-18T06:37:12.635Z,37.20
2017-06-18T06:39:40.076Z,35.90
2017-06-18T06:42:07.520Z,37.40
2017-06-18T06:44:34.959Z,36.60
2017-06-18T06:47:02.415Z,38.40
2017-06-18T06:49:29.850Z,36.60
2017-06-18T06:51:58.094Z,37.80
2017-06-18T06:54:25.535Z,37.80
2017-06-18T06:56:52.982Z,38.30
2017-06-18T06:59:20.428Z,40.70
2017-06-18T07:01:47.883Z,44.10
2017-06-18T07:04:15.339Z,43.40
2017-06-18T07:06:42.795Z,41.80
2017-06-18T07:09:10.252Z,43.80
2017-06-18T07:11:37.718Z,43.70
2017-06-18T07:14:05.162Z,42.10
2017-06-18T07:16:32.607Z,50.60
2017-06-18T07:19:00.051Z,45.70
2017-06-18T07:21:27.499Z,41.00
2017-06-18T07:23:54.952Z,39.20
2017-06-18T07:26:22.395Z,38.60
2017-06-18T07:28:49.854Z,36.70
2017-06-18T07:31:17.303Z,37.90
2017-06-18T07:33:44.755Z,38.40
2017-06-18T07:36:12.242Z,36.80
2017-06-18T07:38:39.691Z,35.10
2017-06-18T07:41:07.132Z,35.40
2017-06-18T07:43:34.587Z,36.90
2017-06-18T07:46:02.035Z,40.60
2017-06-18T07:48:29.494Z,41.10
2017-06-18T07:50:56.978Z,40.50
2017-06-18T07:53:24.435Z,43.00
2017-06-18T07:55:52.738Z,43.00
2017-06-18T07:58:20.179Z,43.00
2017-06-18T08:00:47.689Z,40.50
2017-06-18T08:03:15.163Z,37.80
2017-06-18T08:05:43.378Z,40.60
2017-06-18T08:08:10.837Z,40.60
2017-06-18T08:10:38.290Z,41.50
2017-06-18T08:13:05.735Z,47.00
2017-06-18T08:15:33.208Z,54.00
2017-06-18T08:18:00.679Z,52.00
2017-06-18T08:20:28.203Z,46.50
2017-06-18T08:22:55.639Z,43.10
2017-06-18T08:25:23.111Z,40.80
2017-06-18T08:27:50.546Z,40.20
2017-06-18T08:30:17.986Z,40.00
2017-06-18T08:32:45.444Z,46.40
2017-06-18T08:35:12.882Z,43.10
2017-06-18T08:37:40.345Z,45.40
2017-06-18T08:40:07.795Z,44.20
2017-06-18T08:42:35.243Z,42.20
2017-06-18T08:45:02.686Z,41.60
2017-06-18T08:47:30.140Z,41.30
2017-06-18T08:49:57.588Z,41.10
2017-06-18T08:52:25.044Z,40.00
2017-06-18T08:54:52.494Z,38.10
2017-06-18T08:57:20.083Z,38.90
2017-06-18T08:59:47.531Z,39.90
2017-06-18T09:02:14.982Z,44.70
2017-06-18T09:04:42.430Z,43.70
2017-06-18T09:07:10.372Z,39.00
2017-06-18T09:09:37.806Z,37.50
2017-06-18T09:12:06.052Z,37.00
2017-06-18T09:14:34.263Z,37.80
2017-06-18T09:17:01.719Z,38.40
2017-06-18T09:19:29.180Z,41.20
2017-06-18T09:21:56.614Z,38.40
2017-06-18T09:24:24.062Z,43.30
2017-06-18T09:26:51.507Z,44.20
2017-06-18T09:29:18.976Z,40.60
2017-06-18T09:31:46.431Z,42.10
2017-06-18T09:34:13.878Z,39.30
2017-06-18T09:36:41.322Z,40.20
2017-06-18T09:39:08.772Z,39.40
2017-06-18T09:41:36.215Z,37.70
2017-06-18T09:44:03.682Z,34.90
2017-06-18T09:46:31.139Z,40.10
2017-06-18T09:48:58.592Z,43.90
2017-06-18T09:51:26.035Z,38.90
2017-06-18T09:53:54.252Z,35.40
2017-06-18T09:56:21.708Z,35.40
2017-06-18T09:58:49.151Z,35.10
2017-06-18T10:01:16.595Z,37.50
2017-06-18T10:03:44.039Z,37.50
2017-06-18T10:06:12.251Z,35.60
2017-06-18T10:08:39.708Z,35.60
2017-06-18T10:11:07.179Z,34.20
2017-06-18T10:13:34.619Z,33.30
2017-06-18T10:16:02.827Z,33.60
2017-06-18T10:18:30.287Z,35.40
2017-06-18T10:20:57.731Z,37.80
2017-06-18T10:23:27.764Z,37.60
2017-06-18T10:25:55.291Z,33.50
2017-06-18T10:28:22.751Z,34.00
2017-06-18T10:30:50.195Z,33.60
2017-06-18T10:33:17.648Z,33.70
2017-06-18T10:35:45.091Z,34.30
2017-06-18T10:38:12.538Z,32.00
2017-06-18T10:40:39.983Z,31.80
2017-06-18T10:43:07.435Z,29.90
2017-06-18T10:45:35.647Z,34.80
2017-06-18T10:48:03.087Z,34.70
2017-06-18T10:50:30.527Z,34.10
2017-06-18T10:52:57.971Z,32.40
2017-06-18T10:55:26.190Z,32.40
2017-06-18T10:57:53.643Z,32.30
2017-06-18T11:00:21.118Z,31.20
2017-06-18T11:02:48.561Z,31.10
2017-06-18T11:05:16.010Z,37.70
2017-06-18T11:07:43.466Z,34.90
2017-06-18T11:10:10.931Z,37.10
2017-06-18T11:12:38.381Z,37.00
2017-06-18T11:15:05.838Z,35.20
2017-06-18T11:17:33.295Z,37.10
2017-06-18T11:20:00.763Z,34.80
2017-06-18T11:22:28.207Z,33.50
2017-06-18T11:24:55.733Z,32.70
2017-06-18T11:27:23.256Z,34.20
2017-06-18T11:29:50.699Z,36.00
2017-06-18T11:32:18.911Z,38.40
2017-06-18T11:34:46.364Z,38.40
2017-06-18T11:37:13.985Z,40.80
2017-06-18T11:39:42.211Z,37.80
2017-06-18T11:42:09.655Z,37.80
2017-06-18T11:44:37.111Z,35.90
2017-06-18T11:47:04.565Z,34.20
2017-06-18T11:49:31.994Z,36.50
2017-06-18T11:51:59.492Z,36.90
2017-06-18T11:54:27.038Z,35.10
2017-06-18T11:56:54.515Z,34.80
2017-06-18T11:59:21.963Z,36.70
2017-06-18T12:01:49.411Z,34.10
2017-06-18T12:04:16.862Z,37.00
2017-06-18T12:06:44.318Z,37.40
2017-06-18T12:09:11.783Z,34.50
2017-06-18T12:11:39.226Z,34.80
2017-06-18T12:14:06.666Z,33.30
2017-06-18T12:16:34.113Z,33.40
2017-06-18T12:19:02.332Z,34.00
2017-06-18T12:21:29.779Z,33.90
2017-06-18T12:23:57.232Z,33.10
2017-06-18T12:26:24.682Z,32.40
2017-06-18T12:28:52.143Z,31.60
2017-06-18T12:31:19.587Z,32.50
2017-06-18T12:33:47.035Z,34.90
2017-06-18T12:36:14.475Z,33.70
2017-06-18T12:38:42.686Z,34.70
2017-06-18T12:41:10.143Z,34.70
2017-06-18T12:43:37.582Z,33.20
2017-06-18T12:46:05.031Z,34.00
2017-06-18T12:49:13.886Z,33.50
2017-06-18T12:51:41.335Z,36.00
2017-06-18T12:54:08.785Z,35.60
2017-06-18T12:56:36.246Z,36.20
2017-06-18T12:59:03.706Z,36.80
2017-06-18T13:01:31.163Z,36.20
2017-06-18T13:03:58.621Z,37.90
2017-06-18T13:06:26.998Z,37.00
2017-06-18T13:08:54.508Z,34.60
2017-06-18T13:11:21.981Z,34.20
2017-06-18T13:13:50.191Z,35.80
2017-06-18T13:16:17.646Z,35.70
2017-06-18T13:18:45.101Z,36.80
2017-06-18T13:21:12.531Z,36.70
2017-06-18T13:23:39.983Z,35.60
2017-06-18T13:26:07.423Z,35.70
2017-06-18T13:28:34.866Z,34.60
2017-06-18T13:31:02.312Z,34.70
2017-06-18T13:33:29.763Z,34.40
2017-06-18T13:35:57.211Z,34.50
2017-06-18T13:38:24.669Z,34.50
2017-06-18T13:40:52.111Z,34.40
2017-06-18T13:43:19.563Z,34.50
2017-06-18T13:45:47.013Z,34.90
2017-06-18T13:48:15.427Z,35.40
2017-06-18T13:50:42.875Z,34.70
2017-06-18T13:53:10.311Z,34.90
2017-06-18T13:55:38.566Z,35.70
2017-06-18T13:58:06.024Z,35.60
2017-06-18T14:00:33.467Z,35.80
2017-06-18T14:03:00.915Z,35.80
2017-06-18T14:05:28.378Z,35.20
2017-06-18T14:07:55.899Z,35.40
2017-06-18T14:10:23.359Z,35.20
2017-06-18T14:12:50.811Z,35.90
2017-06-18T14:15:18.269Z,35.60
2017-06-18T14:17:45.710Z,36.70
2017-06-18T14:20:13.159Z,35.80
2017-06-18T14:22:40.611Z,36.00
2017-06-18T14:25:08.851Z,36.80
2017-06-18T14:27:36.304Z,36.70
2017-06-18T14:30:03.747Z,36.90
2017-06-18T14:32:31.195Z,36.90
2017-06-18T14:34:58.635Z,36.60
2017-06-18T14:37:26.096Z,38.40
2017-06-18T14:39:53.550Z,39.60
2017-06-18T14:42:21.007Z,38.20
2017-06-18T14:44:48.447Z,37.50
2017-06-18T14:47:15.899Z,37.10
2017-06-18T14:49:43.340Z,37.70
2017-06-18T14:52:11.560Z,36.90
2017-06-18T14:54:39.003Z,36.90
2017-06-18T14:57:06.472Z,37.00
2017-06-18T14:59:33.915Z,37.10
2017-06-18T15:02:01.388Z,36.80
2017-06-18T15:04:28.831Z,36.90
2017-06-18T15:06:56.295Z,37.00
2017-06-18T15:09:23.739Z,37.10
2017-06-18T15:11:51.182Z,38.20
2017-06-18T15:14:18.631Z,36.90
2017-06-18T15:16:46.075Z,36.30
2017-06-18T15:19:13.531Z,36.60
2017-06-18T15:21:40.975Z,36.30
2017-06-18T15:24:08.428Z,36.50
2017-06-18T15:26:35.868Z,37.30
2017-06-18T15:29:03.316Z,36.90
2017-06-18T15:31:30.787Z,36.60
2017-06-18T15:33:58.239Z,35.70
2017-06-18T15:36:25.694Z,37.00
2017-06-18T15:38:53.155Z,36.70
2017-06-18T15:41:20.644Z,37.00
2017-06-18T15:43:48.091Z,37.10
2017-06-18T15:46:15.536Z,37.60
2017-06-18T15:48:42.994Z,37.50
2017-06-18T15:51:10.854Z,37.20
2017-06-18T15:53:38.298Z,37.20
2017-06-18T15:56:05.781Z,37.10
2017-06-18T15:58:34.002Z,38.40
2017-06-18T16:01:01.452Z,38.30
2017-06-18T16:03:28.903Z,38.90
2017-06-18T16:05:56.361Z,38.50
2017-06-18T16:08:23.822Z,38.30
2017-06-18T16:10:51.283Z,38.10
2017-06-18T16:13:18.734Z,37.80
2017-06-18T16:15:46.183Z,38.10
2017-06-18T16:18:13.627Z,38.50
2017-06-18T16:20:41.082Z,38.80
2017-06-18T16:23:08.835Z,38.30
2017-06-18T16:25:36.291Z,38.70
2017-06-18T16:28:03.747Z,38.10
2017-06-18T16:30:31.202Z,37.70
2017-06-18T16:32:58.665Z,39.20
2017-06-18T16:35:26.115Z,38.50
2017-06-18T16:37:53.613Z,38.10
2017-06-18T16:40:21.067Z,38.90
2017-06-18T16:42:48.522Z,38.40
2017-06-18T16:45:15.967Z,38.00
2017-06-18T16:47:43.424Z,38.90
2017-06-18T16:50:10.859Z,38.80
2017-06-18T16:52:38.338Z,38.60
2017-06-18T16:55:05.785Z,38.30
2017-06-18T16:57:33.231Z,39.10
2017-06-18T17:00:00.683Z,38.70
2017-06-18T17:02:28.126Z,38.90
2017-06-18T17:04:56.342Z,39.80
2017-06-18T17:07:23.786Z,39.70
2017-06-18T17:09:51.231Z,40.00
2017-06-18T17:12:18.679Z,40.30
2017-06-18T17:14:46.120Z,39.60
2017-06-18T17:17:13.558Z,39.60
2017-06-18T17:19:41.772Z,40.10
2017-06-18T17:22:14.967Z,40.10
2017-06-18T17:24:42.420Z,39.20
2017-06-18T17:27:10.714Z,39.80
2017-06-18T17:29:38.947Z,40.30
2017-06-18T17:32:06.451Z,40.20
2017-06-18T17:34:33.931Z,40.90
2017-06-18T17:37:01.378Z,40.90
2017-06-18T17:39:28.815Z,40.40
2017-06-18T17:41:56.264Z,40.20
2017-06-18T17:44:24.471Z,41.20
2017-06-18T17:46:51.914Z,40.60
2017-06-18T17:49:19.351Z,40.80
2017-06-18T17:51:46.795Z,40.90
2017-06-18T17:54:14.235Z,40.70
2017-06-18T17:56:41.678Z,41.30
2017-06-18T17:59:09.189Z,40.90
2017-06-18T18:01:36.659Z,41.10
2017-06-18T18:04:04.104Z,41.70
2017-06-18T18:06:32.310Z,41.80
2017-06-18T18:08:59.766Z,41.10
2017-06-18T18:11:27.217Z,41.20
2017-06-18T18:13:54.655Z,41.50
2017-06-18T18:16:22.101Z,41.90
2017-06-18T18:18:49.558Z,41.60
2017-06-18T18:21:17.771Z,41.80
2017-06-18T18:23:45.258Z,41.80
2017-06-18T18:26:12.702Z,42.20
2017-06-18T18:28:40.159Z,41.70
2017-06-18T18:31:07.626Z,42.10
2017-06-18T18:33:35.111Z,42.50
2017-06-18T18:36:02.563Z,42.70
2017-06-18T18:38:30.021Z,43.10
2017-06-18T18:40:57.459Z,43.60
2017-06-18T18:43:24.911Z,43.20
2017-06-18T18:45:52.355Z,43.50
2017-06-18T18:48:19.807Z,43.50
2017-06-18T18:50:47.251Z,43.70
2017-06-18T18:53:14.694Z,43.60
2017-06-18T18:55:42.151Z,43.50
2017-06-18T18:58:09.595Z,43.70
2017-06-18T19:00:37.038Z,44.00
2017-06-18T19:03:04.483Z,44.50
2017-06-18T19:05:31.932Z,44.60
2017-06-18T19:08:00.151Z,45.20
2017-06-18T19:10:27.607Z,45.20
2017-06-18T19:12:55.051Z,45.10
2017-06-18T19:15:28.406Z,45.10
2017-06-18T19:17:56.615Z,46.20
2017-06-18T19:20:24.063Z,45.60
2017-06-18T19:22:51.518Z,45.50
2017-06-18T19:25:18.988Z,45.00
2017-06-18T19:27:46.465Z,45.30
2017-06-18T19:30:13.912Z,45.80
2017-06-18T19:32:41.359Z,46.00
2017-06-18T19:35:08.815Z,46.20
2017-06-18T19:37:36.278Z,46.20
2017-06-18T19:40:03.714Z,46.50
2017-06-18T19:42:31.166Z,46.40
2017-06-18T19:44:58.602Z,50.40
2017-06-18T19:47:26.056Z,53.30
2017-06-18T19:49:53.504Z,54.40
2017-06-18T19:52:20.951Z,56.00
2017-06-18T19:54:48.403Z,57.70
2017-06-18T19:57:15.859Z,58.70
2017-06-18T19:59:43.298Z,59.60
2017-06-18T20:02:10.740Z,60.60
2017-06-18T20:04:38.195Z,60.80
2017-06-18T20:07:05.636Z,60.00
2017-06-18T20:09:33.084Z,60.50
2017-06-18T20:12:00.519Z,61.50
2017-06-18T20:14:27.967Z,61.70
2017-06-18T20:16:55.416Z,62.10
2017-06-18T20:19:22.869Z,60.80
2017-06-18T20:21:50.303Z,60.30
2017-06-18T20:24:17.758Z,60.90
2017-06-18T20:26:45.963Z,60.90
2017-06-18T20:29:13.421Z,60.90
2017-06-18T20:31:40.862Z,62.20
2017-06-18T20:34:08.315Z,63.50
2017-06-18T20:36:35.770Z,64.30
2017-06-18T20:39:03.243Z,65.00
2017-06-18T20:41:30.699Z,66.60
2017-06-18T20:43:58.138Z,67.30
2017-06-18T20:46:26.355Z,69.40
2017-06-18T20:48:53.799Z,69.30
2017-06-18T20:51:21.242Z,68.80
2017-06-18T20:53:48.679Z,69.20
2017-06-18T20:56:16.159Z,70.40
2017-06-18T20:58:43.731Z,70.60
2017-06-18T21:01:11.196Z,70.20
2017-06-18T21:03:38.646Z,70.00
2017-06-18T21:06:06.872Z,70.00
2017-06-18T21:08:34.314Z,69.90
2017-06-18T21:11:02.125Z,71.00
2017-06-18T21:13:29.633Z,71.20
2017-06-18T21:15:57.237Z,71.30
2017-06-18T21:18:24.744Z,71.90
2017-06-18T21:20:52.194Z,72.20
2017-06-18T21:23:19.630Z,72.80
2017-06-18T21:25:47.071Z,73.10
2017-06-18T21:28:14.518Z,73.10
2017-06-18T21:30:42.727Z,73.30
2017-06-18T21:33:10.203Z,73.30
2017-06-18T21:35:37.639Z,73.60
2017-06-18T21:38:05.087Z,73.70
2017-06-18T21:40:32.527Z,74.10
2017-06-18T21:42:59.980Z,74.20
2017-06-18T21:45:27.525Z,73.10
2017-06-18T21:47:55.015Z,73.00
2017-06-18T21:50:22.458Z,73.80
2017-06-18T21:52:49.942Z,72.50
2017-06-18T21:55:17.386Z,73.20
2017-06-18T21:57:44.826Z,73.80
2017-06-18T22:00:12.275Z,74.40
2017-06-18T22:02:39.715Z,75.00
2017-06-18T22:05:07.174Z,75.50
2017-06-18T22:07:34.615Z,75.20
2017-06-18T22:10:02.067Z,75.70
2017-06-18T22:12:29.507Z,76.30
2017-06-18T22:14:57.720Z,76.70
2017-06-18T22:17:25.276Z,76.60
2017-06-18T22:19:52.711Z,77.30
2017-06-18T22:22:20.152Z,76.60
2017-06-18T22:24:47.599Z,76.90
2017-06-18T22:27:15.815Z,77.50
2017-06-18T22:29:43.259Z,76.70
2017-06-18T22:32:10.709Z,77.00
2017-06-18T22:34:38.940Z,77.20
2017-06-18T22:37:06.379Z,77.00
2017-06-18T22:39:33.819Z,76.70
2017-06-18T22:42:01.275Z,77.20
2017-06-18T22:44:28.718Z,77.00
2017-06-18T22:46:56.170Z,77.40
2017-06-18T22:49:23.610Z,77.50
2017-06-18T22:51:51.055Z,77.30
2017-06-18T22:54:19.258Z,78.10
2017-06-18T22:56:46.707Z,77.50
2017-06-18T22:59:14.151Z,77.80
2017-06-18T23:01:41.594Z,77.20
2017-06-18T23:04:09.799Z,77.40
2017-06-18T23:06:37.246Z,77.40
2017-06-18T23:09:04.687Z,78.20
2017-06-18T23:11:32.911Z,78.00
2017-06-18T23:14:00.355Z,78.00
2017-06-18T23:16:27.803Z,78.70
2017-06-18T23:18:55.243Z,79.20
2017-06-18T23:21:22.678Z,79.30
2017-06-18T23:23:50.895Z,78.90
2017-06-18T23:26:18.335Z,78.80
2017-06-18T23:28:45.784Z,79.00
2017-06-18T23:31:13.222Z,79.30
2017-06-18T23:33:41.435Z,79.10
2017-06-18T23:36:08.895Z,78.80
2017-06-18T23:38:36.362Z,79.40
2017-06-18T23:41:03.808Z,81.00
2017-06-18T23:43:31.256Z,81.00
2017-06-18T23:45:58.695Z,80.30
2017-06-18T23:48:26.135Z,80.20
2017-06-18T23:50:54.346Z,78.80
2017-06-18T23:53:21.783Z,78.80
2017-06-18T23:55:49.231Z,78.60
2017-06-18T23:58:16.668Z,78.40
